sensor_id;sensor_type;location;lat;lon;timestamp;pressure;altitude;pressure_sealevel;temperature;humidity
64340;BME280;63709;53.258;-8.814;2022-12-17T00:02:13;101572.84;;;4.17;100.00
64340;BME280;63709;53.258;-8.814;2022-12-17T00:04:57;101562.50;;;4.10;100.00
64340;BME280;63709;53.258;-8.814;2022-12-17T00:07:43;101544.25;;;4.04;100.00
64340;BME280;63709;53.258;-8.814;2022-12-17T00:10:27;101560.69;;;4.12;100.00
64340;BME280;63709;53.258;-8.814;2022-12-17T00:13:21;101560.56;;;4.16;100.00
64340;BME280;63709;53.258;-8.814;2022-12-17T00:16:10;101563.34;;;4.11;100.00
64340;BME280;63709;53.258;-8.814;2022-12-17T00:19:15;101551.91;;;4.12;100.00
64340;BME280;63709;53.258;-8.814;2022-12-17T00:22:01;101556.19;;;4.15;100.00
64340;BME280;63709;53.258;-8.814;2022-12-17T00:24:45;101569.81;;;4.27;100.00
64340;BME280;63709;53.258;-8.814;2022-12-17T00:27:31;101563.44;;;4.33;100.00
64340;BME280;63709;53.258;-8.814;2022-12-17T00:30:16;101562.41;;;4.37;100.00
64340;BME280;63709;53.258;-8.814;2022-12-17T00:33:00;101544.19;;;4.29;100.00
64340;BME280;63709;53.258;-8.814;2022-12-17T00:35:55;101563.00;;;4.45;100.00
64340;BME280;63709;53.258;-8.814;2022-12-17T00:38:40;101555.97;;;4.44;100.00
64340;BME280;63709;53.258;-8.814;2022-12-17T00:41:25;101562.81;;;4.50;100.00
64340;BME280;63709;53.258;-8.814;2022-12-17T00:44:10;101561.16;;;4.47;100.00
64340;BME280;63709;53.258;-8.814;2022-12-17T00:46:55;101542.19;;;4.36;100.00
64340;BME280;63709;53.258;-8.814;2022-12-17T00:49:39;101554.19;;;4.45;100.00
64340;BME280;63709;53.258;-8.814;2022-12-17T00:52:24;101542.41;;;4.30;100.00
64340;BME280;63709;53.258;-8.814;2022-12-17T00:55:10;101556.22;;;4.38;100.00
64340;BME280;63709;53.258;-8.814;2022-12-17T00:57:55;101545.88;;;4.32;100.00
64340;BME280;63709;53.258;-8.814;2022-12-17T01:00:40;101560.78;;;4.33;100.00
64340;BME280;63709;53.258;-8.814;2022-12-17T01:03:28;101545.28;;;4.24;100.00
64340;BME280;63709;53.258;-8.814;2022-12-17T01:06:23;101547.88;;;4.25;100.00
64340;BME280;63709;53.258;-8.814;2022-12-17T01:09:07;101549.34;;;4.34;100.00
64340;BME280;63709;53.258;-8.814;2022-12-17T01:11:52;101548.41;;;4.35;100.00
64340;BME280;63709;53.258;-8.814;2022-12-17T01:14:38;101546.72;;;4.32;100.00
64340;BME280;63709;53.258;-8.814;2022-12-17T01:17:22;101539.72;;;4.31;100.00
64340;BME280;63709;53.258;-8.814;2022-12-17T01:20:08;101553.78;;;4.32;100.00
64340;BME280;63709;53.258;-8.814;2022-12-17T01:22:53;101536.22;;;4.31;100.00
64340;BME280;63709;53.258;-8.814;2022-12-17T01:25:37;101540.41;;;4.36;100.00
64340;BME280;63709;53.258;-8.814;2022-12-17T01:28:23;101534.25;;;4.36;100.00
64340;BME280;63709;53.258;-8.814;2022-12-17T01:31:10;101546.50;;;4.39;100.00
64340;BME280;63709;53.258;-8.814;2022-12-17T01:33:54;101524.94;;;4.26;100.00
64340;BME280;63709;53.258;-8.814;2022-12-17T01:36:38;101523.75;;;4.34;100.00
64340;BME280;63709;53.258;-8.814;2022-12-17T01:39:22;101535.19;;;4.35;100.00
64340;BME280;63709;53.258;-8.814;2022-12-17T01:42:13;101531.84;;;4.30;100.00
64340;BME280;63709;53.258;-8.814;2022-12-17T01:45:17;101537.75;;;4.36;100.00
64340;BME280;63709;53.258;-8.814;2022-12-17T01:48:02;101539.44;;;4.39;100.00
64340;BME280;63709;53.258;-8.814;2022-12-17T01:50:49;101543.78;;;4.40;100.00
64340;BME280;63709;53.258;-8.814;2022-12-17T01:53:37;101551.03;;;4.35;100.00
64340;BME280;63709;53.258;-8.814;2022-12-17T01:56:24;101536.22;;;4.31;100.00
64340;BME280;63709;53.258;-8.814;2022-12-17T01:59:12;101542.38;;;4.31;100.00
64340;BME280;63709;53.258;-8.814;2022-12-17T02:01:57;101536.16;;;4.32;100.00
64340;BME280;63709;53.258;-8.814;2022-12-17T02:04:41;101537.72;;;4.38;100.00
64340;BME280;63709;53.258;-8.814;2022-12-17T02:10:33;101566.22;;;4.53;100.00
64340;BME280;63709;53.258;-8.814;2022-12-17T02:13:23;101564.47;;;4.52;100.00
64340;BME280;63709;53.258;-8.814;2022-12-17T02:16:19;101554.63;;;4.56;100.00
64340;BME280;63709;53.258;-8.814;2022-12-17T02:22:21;101560.84;;;4.55;100.00
64340;BME280;63709;53.258;-8.814;2022-12-17T02:25:17;101562.84;;;4.48;100.00
64340;BME280;63709;53.258;-8.814;2022-12-17T02:28:05;101564.91;;;4.42;100.00
64340;BME280;63709;53.258;-8.814;2022-12-17T02:30:49;101565.88;;;4.39;100.00
64340;BME280;63709;53.258;-8.814;2022-12-17T02:33:34;101548.03;;;4.21;100.00
64340;BME280;63709;53.258;-8.814;2022-12-17T02:36:19;101538.41;;;4.20;100.00
64340;BME280;63709;53.258;-8.814;2022-12-17T02:39:05;101566.09;;;4.33;100.00
64340;BME280;63709;53.258;-8.814;2022-12-17T02:41:52;101558.16;;;4.33;100.00
64340;BME280;63709;53.258;-8.814;2022-12-17T02:44:39;101566.94;;;4.33;100.00
64340;BME280;63709;53.258;-8.814;2022-12-17T02:47:27;101553.16;;;4.25;100.00
64340;BME280;63709;53.258;-8.814;2022-12-17T02:50:12;101562.66;;;4.31;100.00
64340;BME280;63709;53.258;-8.814;2022-12-17T02:52:59;101571.47;;;4.30;100.00
64340;BME280;63709;53.258;-8.814;2022-12-17T02:55:44;101561.91;;;4.27;100.00
64340;BME280;63709;53.258;-8.814;2022-12-17T02:58:29;101549.88;;;4.19;100.00
64340;BME280;63709;53.258;-8.814;2022-12-17T03:01:14;101555.97;;;4.21;100.00
64340;BME280;63709;53.258;-8.814;2022-12-17T03:03:58;101574.19;;;4.28;100.00
64340;BME280;63709;53.258;-8.814;2022-12-17T03:06:43;101562.94;;;4.23;100.00
64340;BME280;63709;53.258;-8.814;2022-12-17T03:09:29;101566.44;;;4.24;100.00
64340;BME280;63709;53.258;-8.814;2022-12-17T03:12:14;101555.16;;;4.19;100.00
64340;BME280;63709;53.258;-8.814;2022-12-17T03:14:59;101531.94;;;4.03;100.00
64340;BME280;63709;53.258;-8.814;2022-12-17T03:17:45;101559.38;;;4.24;100.00
64340;BME280;63709;53.258;-8.814;2022-12-17T03:20:29;101563.03;;;4.20;100.00
64340;BME280;63709;53.258;-8.814;2022-12-17T03:23:13;101563.03;;;4.20;100.00
64340;BME280;63709;53.258;-8.814;2022-12-17T03:26:00;101567.56;;;4.17;100.00
64340;BME280;63709;53.258;-8.814;2022-12-17T03:28:46;101571.81;;;4.21;100.00
64340;BME280;63709;53.258;-8.814;2022-12-17T03:31:31;101569.50;;;4.11;100.00
64340;BME280;63709;53.258;-8.814;2022-12-17T03:34:16;101551.81;;;4.13;100.00
64340;BME280;63709;53.258;-8.814;2022-12-17T03:37:01;101565.78;;;4.17;100.00
64340;BME280;63709;53.258;-8.814;2022-12-17T03:39:45;101563.97;;;4.19;100.00
64340;BME280;63709;53.258;-8.814;2022-12-17T03:42:30;101565.72;;;4.19;100.00
64340;BME280;63709;53.258;-8.814;2022-12-17T03:45:14;101549.28;;;4.10;100.00
64340;BME280;63709;53.258;-8.814;2022-12-17T03:48:08;101566.66;;;4.18;100.00
64340;BME280;63709;53.258;-8.814;2022-12-17T03:50:53;101562.28;;;4.17;100.00
64340;BME280;63709;53.258;-8.814;2022-12-17T03:53:38;101565.84;;;4.16;100.00
64340;BME280;63709;53.258;-8.814;2022-12-17T03:56:23;101547.50;;;4.11;100.00
64340;BME280;63709;53.258;-8.814;2022-12-17T03:59:09;101558.81;;;4.15;100.00
64340;BME280;63709;53.258;-8.814;2022-12-17T04:01:54;101560.22;;;4.25;100.00
64340;BME280;63709;53.258;-8.814;2022-12-17T04:04:39;101560.31;;;4.22;100.00
64340;BME280;63709;53.258;-8.814;2022-12-17T04:07:24;101560.22;;;4.25;100.00
64340;BME280;63709;53.258;-8.814;2022-12-17T04:10:10;101557.66;;;4.23;100.00
64340;BME280;63709;53.258;-8.814;2022-12-17T04:12:54;101556.66;;;4.26;100.00
64340;BME280;63709;53.258;-8.814;2022-12-17T04:15:38;101541.72;;;4.25;100.00
64340;BME280;63709;53.258;-8.814;2022-12-17T04:18:23;101535.88;;;4.17;100.00
64340;BME280;63709;53.258;-8.814;2022-12-17T04:21:07;101542.59;;;4.25;100.00
64340;BME280;63709;53.258;-8.814;2022-12-17T04:23:52;101554.53;;;4.35;100.00
64340;BME280;63709;53.258;-8.814;2022-12-17T04:26:38;101535.41;;;4.29;100.00
64340;BME280;63709;53.258;-8.814;2022-12-17T04:29:23;101550.69;;;4.44;100.00
64340;BME280;63709;53.258;-8.814;2022-12-17T04:32:09;101532.44;;;4.38;100.00
64340;BME280;63709;53.258;-8.814;2022-12-17T04:34:55;101546.03;;;4.51;100.00
64340;BME280;63709;53.258;-8.814;2022-12-17T04:37:40;101532.25;;;4.43;100.00
64340;BME280;63709;53.258;-8.814;2022-12-17T04:40:25;101552.19;;;4.51;100.00
64340;BME280;63709;53.258;-8.814;2022-12-17T04:43:11;101549.41;;;4.54;100.00
64340;BME280;63709;53.258;-8.814;2022-12-17T04:45:55;101537.47;;;4.44;100.00
64340;BME280;63709;53.258;-8.814;2022-12-17T04:48:40;101555.63;;;4.53;100.00
64340;BME280;63709;53.258;-8.814;2022-12-17T04:51:26;101556.59;;;4.51;100.00
64340;BME280;63709;53.258;-8.814;2022-12-17T04:54:10;101550.56;;;4.47;100.00
64340;BME280;63709;53.258;-8.814;2022-12-17T04:56:55;101554.81;;;4.51;100.00
64340;BME280;63709;53.258;-8.814;2022-12-17T04:59:40;101553.91;;;4.52;100.00
64340;BME280;63709;53.258;-8.814;2022-12-17T05:02:27;101539.16;;;4.47;100.00
64340;BME280;63709;53.258;-8.814;2022-12-17T05:05:11;101567.94;;;4.54;100.00
64340;BME280;63709;53.258;-8.814;2022-12-17T05:07:56;101563.38;;;4.58;100.00
64340;BME280;63709;53.258;-8.814;2022-12-17T05:10:43;101557.34;;;4.54;100.00
64340;BME280;63709;53.258;-8.814;2022-12-17T05:13:27;101559.03;;;4.57;100.00
64340;BME280;63709;53.258;-8.814;2022-12-17T05:16:11;101566.78;;;4.61;100.00
64340;BME280;63709;53.258;-8.814;2022-12-17T05:18:57;101563.47;;;4.56;100.00
64340;BME280;63709;53.258;-8.814;2022-12-17T05:21:41;101554.63;;;4.56;100.00
64340;BME280;63709;53.258;-8.814;2022-12-17T05:24:26;101580.63;;;4.68;100.00
64340;BME280;63709;53.258;-8.814;2022-12-17T05:27:09;101567.41;;;4.68;100.00
64340;BME280;63709;53.258;-8.814;2022-12-17T05:29:54;101566.78;;;4.61;100.00
64340;BME280;63709;53.258;-8.814;2022-12-17T05:32:38;101562.31;;;4.64;100.00
64340;BME280;63709;53.258;-8.814;2022-12-17T05:35:23;101549.53;;;4.51;100.00
64340;BME280;63709;53.258;-8.814;2022-12-17T05:38:09;101564.31;;;4.57;100.00
64340;BME280;63709;53.258;-8.814;2022-12-17T05:40:58;101544.31;;;4.50;100.00
64340;BME280;63709;53.258;-8.814;2022-12-17T05:43:43;101558.22;;;4.55;100.00
64340;BME280;63709;53.258;-8.814;2022-12-17T05:46:27;101557.47;;;4.51;100.00
64340;BME280;63709;53.258;-8.814;2022-12-17T05:49:12;101547.19;;;4.44;100.00
64340;BME280;63709;53.258;-8.814;2022-12-17T05:51:58;101553.19;;;4.49;100.00
64340;BME280;63709;53.258;-8.814;2022-12-17T05:54:42;101549.03;;;4.42;100.00
64340;BME280;63709;53.258;-8.814;2022-12-17T05:57:26;101540.28;;;4.40;100.00
64340;BME280;63709;53.258;-8.814;2022-12-17T06:00:10;101546.31;;;4.43;100.00
64340;BME280;63709;53.258;-8.814;2022-12-17T06:02:59;101538.63;;;4.37;100.00
64340;BME280;63709;53.258;-8.814;2022-12-17T06:05:46;101553.41;;;4.43;100.00
64340;BME280;63709;53.258;-8.814;2022-12-17T06:08:31;101560.34;;;4.45;100.00
64340;BME280;63709;53.258;-8.814;2022-12-17T06:11:16;101548.34;;;4.36;100.00
64340;BME280;63709;53.258;-8.814;2022-12-17T06:14:01;101562.84;;;4.48;100.00
64340;BME280;63709;53.258;-8.814;2022-12-17T06:16:45;101567.38;;;4.46;100.00
64340;BME280;63709;53.258;-8.814;2022-12-17T06:19:30;101557.81;;;4.42;100.00
64340;BME280;63709;53.258;-8.814;2022-12-17T06:22:14;101575.03;;;4.52;100.00
64340;BME280;63709;53.258;-8.814;2022-12-17T06:24:58;101553.19;;;4.49;100.00
64340;BME280;63709;53.258;-8.814;2022-12-17T06:27:43;101567.72;;;4.60;100.00
64340;BME280;63709;53.258;-8.814;2022-12-17T06:30:27;101569.41;;;4.61;100.00
64340;BME280;63709;53.258;-8.814;2022-12-17T06:33:12;101532.19;;;4.44;100.00
64340;BME280;63709;53.258;-8.814;2022-12-17T06:35:58;101562.53;;;4.57;100.00
64340;BME280;63709;53.258;-8.814;2022-12-17T06:38:43;101553.75;;;4.57;100.00
64340;BME280;63709;53.258;-8.814;2022-12-17T06:41:27;101558.00;;;4.61;100.00
64340;BME280;63709;53.258;-8.814;2022-12-17T06:44:11;101552.13;;;4.53;100.00
64340;BME280;63709;53.258;-8.814;2022-12-17T06:46:56;101557.13;;;4.60;100.00
64340;BME280;63709;53.258;-8.814;2022-12-17T06:49:42;101545.00;;;4.55;100.00
64340;BME280;63709;53.258;-8.814;2022-12-17T06:52:27;101569.31;;;4.65;100.00
64340;BME280;63709;53.258;-8.814;2022-12-17T06:55:13;101564.03;;;4.65;100.00
64340;BME280;63709;53.258;-8.814;2022-12-17T06:57:59;101566.59;;;4.66;100.00
64340;BME280;63709;53.258;-8.814;2022-12-17T07:00:44;101567.44;;;4.67;100.00
64340;BME280;63709;53.258;-8.814;2022-12-17T07:03:29;101564.69;;;4.70;100.00
64340;BME280;63709;53.258;-8.814;2022-12-17T07:06:13;101553.66;;;4.58;100.00
64340;BME280;63709;53.258;-8.814;2022-12-17T07:08:57;101545.91;;;4.54;100.00
64340;BME280;63709;53.258;-8.814;2022-12-17T07:11:42;101563.22;;;4.63;100.00
64340;BME280;63709;53.258;-8.814;2022-12-17T07:14:27;101566.78;;;4.61;100.00
64340;BME280;63709;53.258;-8.814;2022-12-17T07:17:12;101558.97;;;4.58;100.00
64340;BME280;63709;53.258;-8.814;2022-12-17T07:19:56;101576.03;;;4.73;100.00
64340;BME280;63709;53.258;-8.814;2022-12-17T07:22:41;101567.41;;;4.68;100.00
64340;BME280;63709;53.258;-8.814;2022-12-17T07:25:25;101580.56;;;4.70;100.00
64340;BME280;63709;53.258;-8.814;2022-12-17T07:28:10;101561.56;;;4.60;100.00
64340;BME280;63709;53.258;-8.814;2022-12-17T07:30:56;101582.53;;;4.65;100.00
64340;BME280;63709;53.258;-8.814;2022-12-17T07:33:41;101578.16;;;4.64;100.00
64340;BME280;63709;53.258;-8.814;2022-12-17T07:36:26;101571.94;;;4.65;100.00
64340;BME280;63709;53.258;-8.814;2022-12-17T07:39:10;101561.59;;;4.58;100.00
64340;BME280;63709;53.258;-8.814;2022-12-17T07:41:54;101583.91;;;4.75;100.00
64340;BME280;63709;53.258;-8.814;2022-12-17T07:44:39;101581.31;;;4.73;100.00
64340;BME280;63709;53.258;-8.814;2022-12-17T07:47:26;101581.13;;;4.78;100.00
64340;BME280;63709;53.258;-8.814;2022-12-17T07:50:10;101555.22;;;4.64;100.00
64340;BME280;63709;53.258;-8.814;2022-12-17T07:53:02;101573.38;;;4.73;100.00
64340;BME280;63709;53.258;-8.814;2022-12-17T07:55:47;101584.47;;;4.83;100.00
64340;BME280;63709;53.258;-8.814;2022-12-17T07:58:33;101590.53;;;4.85;100.00
64340;BME280;63709;53.258;-8.814;2022-12-17T08:01:17;101601.09;;;4.87;100.00
64340;BME280;63709;53.258;-8.814;2022-12-17T08:04:02;101607.16;;;4.89;100.00
64340;BME280;63709;53.258;-8.814;2022-12-17T08:06:46;101584.91;;;4.71;100.00
64340;BME280;63709;53.258;-8.814;2022-12-17T08:09:31;101590.94;;;4.74;100.00
64340;BME280;63709;53.258;-8.814;2022-12-17T08:12:15;101597.91;;;4.77;100.00
64340;BME280;63709;53.258;-8.814;2022-12-17T08:15:00;101574.88;;;4.57;100.00
64340;BME280;63709;53.258;-8.814;2022-12-17T08:17:46;101610.09;;;4.81;100.00
64340;BME280;63709;53.258;-8.814;2022-12-17T08:20:31;101612.00;;;4.77;100.00
64340;BME280;63709;53.258;-8.814;2022-12-17T08:23:16;101616.09;;;4.86;100.00
64340;BME280;63709;53.258;-8.814;2022-12-17T08:26:00;101625.75;;;4.87;100.00
64340;BME280;63709;53.258;-8.814;2022-12-17T08:28:44;101624.88;;;4.87;100.00
64340;BME280;63709;53.258;-8.814;2022-12-17T08:31:28;101625.78;;;4.85;100.00
64340;BME280;63709;53.258;-8.814;2022-12-17T08:34:13;101619.81;;;4.80;100.00
64340;BME280;63709;53.258;-8.814;2022-12-17T08:36:57;101629.81;;;4.96;100.00
64340;BME280;63709;53.258;-8.814;2022-12-17T08:39:41;101631.38;;;5.01;100.00
64340;BME280;63709;53.258;-8.814;2022-12-17T08:42:25;101629.50;;;5.03;100.00
64340;BME280;63709;53.258;-8.814;2022-12-17T08:45:10;101635.44;;;5.10;100.00
64340;BME280;63709;53.258;-8.814;2022-12-17T08:48:04;101624.09;;;5.06;100.00
64340;BME280;63709;53.258;-8.814;2022-12-17T08:50:48;101615.81;;;5.16;100.00
64340;BME280;63709;53.258;-8.814;2022-12-17T08:53:33;101612.44;;;5.12;100.00
64340;BME280;63709;53.258;-8.814;2022-12-17T08:56:17;101617.34;;;5.21;100.00
64340;BME280;63709;53.258;-8.814;2022-12-17T08:59:15;101621.72;;;5.22;100.00
64340;BME280;63709;53.258;-8.814;2022-12-17T09:01:59;101621.66;;;5.24;100.00
64340;BME280;63709;53.258;-8.814;2022-12-17T09:04:44;101621.72;;;5.22;100.00
64340;BME280;63709;53.258;-8.814;2022-12-17T09:07:27;101633.97;;;5.25;100.00
64340;BME280;63709;53.258;-8.814;2022-12-17T09:10:11;101639.19;;;5.26;100.00
64340;BME280;63709;53.258;-8.814;2022-12-17T09:13:00;101641.13;;;5.23;100.00
64340;BME280;63709;53.258;-8.814;2022-12-17T09:15:50;101646.53;;;5.20;100.00
64340;BME280;63709;53.258;-8.814;2022-12-17T09:18:35;101618.06;;;5.03;100.00
64340;BME280;63709;53.258;-8.814;2022-12-17T09:21:20;101635.09;;;5.19;100.00
64340;BME280;63709;53.258;-8.814;2022-12-17T09:24:04;101641.34;;;5.17;100.00
64340;BME280;63709;53.258;-8.814;2022-12-17T09:26:49;101656.13;;;5.22;100.00
64340;BME280;63709;53.258;-8.814;2022-12-17T09:29:33;101662.16;;;5.26;100.00
64340;BME280;63709;53.258;-8.814;2022-12-17T09:32:18;101661.25;;;5.27;100.00
64340;BME280;63709;53.258;-8.814;2022-12-17T09:35:02;101666.47;;;5.28;100.00
64340;BME280;63709;53.258;-8.814;2022-12-17T09:37:56;101662.97;;;5.28;100.00
64340;BME280;63709;53.258;-8.814;2022-12-17T09:40:45;101671.88;;;5.25;100.00
64340;BME280;63709;53.258;-8.814;2022-12-17T09:44:00;101674.34;;;5.30;100.00
64340;BME280;63709;53.258;-8.814;2022-12-17T09:47:04;101660.53;;;5.22;100.00
64340;BME280;63709;53.258;-8.814;2022-12-17T09:49:55;101675.97;;;5.34;100.00
64340;BME280;63709;53.258;-8.814;2022-12-17T09:52:40;101674.22;;;5.33;100.00
64340;BME280;63709;53.258;-8.814;2022-12-17T09:55:43;101664.94;;;5.23;100.00
64340;BME280;63709;53.258;-8.814;2022-12-17T09:58:30;101687.53;;;5.31;100.00
64340;BME280;63709;53.258;-8.814;2022-12-17T10:01:24;101696.22;;;5.35;100.00
64340;BME280;63709;53.258;-8.814;2022-12-17T10:04:23;101684.69;;;5.36;100.00
64340;BME280;63709;53.258;-8.814;2022-12-17T10:07:17;101692.28;;;5.45;100.00
64340;BME280;63709;53.258;-8.814;2022-12-17T10:10:22;101699.22;;;5.48;100.00
64340;BME280;63709;53.258;-8.814;2022-12-17T10:13:15;101689.16;;;5.57;100.00
64340;BME280;63709;53.258;-8.814;2022-12-17T10:15:59;101663.59;;;5.56;100.00
64340;BME280;63709;53.258;-8.814;2022-12-17T10:18:44;101674.34;;;5.74;100.00
64340;BME280;63709;53.258;-8.814;2022-12-17T10:21:29;101678.47;;;5.81;100.00
64340;BME280;63709;53.258;-8.814;2022-12-17T10:24:13;101669.66;;;5.80;100.00
64340;BME280;63709;53.258;-8.814;2022-12-17T10:27:06;101664.16;;;5.85;100.00
64340;BME280;63709;53.258;-8.814;2022-12-17T10:29:51;101647.38;;;5.86;100.00
64340;BME280;63709;53.258;-8.814;2022-12-17T10:32:36;101653.75;;;6.02;100.00
64340;BME280;63709;53.258;-8.814;2022-12-17T10:35:24;101662.31;;;6.29;100.00
64340;BME280;63709;53.258;-8.814;2022-12-17T10:38:31;101658.38;;;6.59;100.00
64340;BME280;63709;53.258;-8.814;2022-12-17T10:41:29;101646.47;;;6.67;100.00
64340;BME280;63709;53.258;-8.814;2022-12-17T10:47:11;101666.31;;;7.17;100.00
64340;BME280;63709;53.258;-8.814;2022-12-17T10:49:57;101661.34;;;7.47;100.00
64340;BME280;63709;53.258;-8.814;2022-12-17T10:52:45;101635.44;;;7.69;100.00
64340;BME280;63709;53.258;-8.814;2022-12-17T10:55:30;101650.06;;;7.95;100.00
64340;BME280;63709;53.258;-8.814;2022-12-17T10:58:21;101654.75;;;8.08;100.00
64340;BME280;63709;53.258;-8.814;2022-12-17T11:01:10;101650.38;;;8.24;100.00
64340;BME280;63709;53.258;-8.814;2022-12-17T11:03:57;101663.59;;;8.25;100.00
64340;BME280;63709;53.258;-8.814;2022-12-17T11:06:52;101662.28;;;8.17;100.00
64340;BME280;63709;53.258;-8.814;2022-12-17T11:09:44;101614.66;;;7.95;100.00
64340;BME280;63709;53.258;-8.814;2022-12-17T11:21:51;101634.31;;;7.56;100.00
64340;BME280;63709;53.258;-8.814;2022-12-17T11:24:59;101649.19;;;7.41;100.00
64340;BME280;63709;53.258;-8.814;2022-12-17T11:27:49;101618.44;;;7.18;100.00
64340;BME280;63709;53.258;-8.814;2022-12-17T11:30:43;101634.81;;;7.28;100.00
64340;BME280;63709;53.258;-8.814;2022-12-17T11:33:43;101638.28;;;7.47;100.00
64340;BME280;63709;53.258;-8.814;2022-12-17T11:36:51;101638.56;;;7.60;100.00
64340;BME280;63709;53.258;-8.814;2022-12-17T11:39:47;101636.22;;;7.71;100.00
64340;BME280;63709;53.258;-8.814;2022-12-17T11:42:39;101629.72;;;7.77;100.00
64340;BME280;63709;53.258;-8.814;2022-12-17T11:45:33;101621.47;;;7.83;100.00
64340;BME280;63709;53.258;-8.814;2022-12-17T11:48:34;101628.56;;;7.83;100.00
64340;BME280;63709;53.258;-8.814;2022-12-17T12:00:19;101626.44;;;7.72;100.00
64340;BME280;63709;53.258;-8.814;2022-12-17T12:06:12;101621.38;;;7.85;100.00
64340;BME280;63709;53.258;-8.814;2022-12-17T12:09:23;101615.50;;;7.95;100.00
64340;BME280;63709;53.258;-8.814;2022-12-17T12:30:16;101602.84;;;7.83;100.00
64340;BME280;63709;53.258;-8.814;2022-12-17T12:36:02;101587.06;;;7.80;100.00
64340;BME280;63709;53.258;-8.814;2022-12-17T12:38:52;101617.22;;;7.96;100.00
64340;BME280;63709;53.258;-8.814;2022-12-17T12:47:44;101622.63;;;7.95;100.00
64340;BME280;63709;53.258;-8.814;2022-12-17T12:50:49;101612.84;;;7.95;100.00
64340;BME280;63709;53.258;-8.814;2022-12-17T12:53:37;101567.84;;;7.75;100.00
64340;BME280;63709;53.258;-8.814;2022-12-17T12:59:40;101578.47;;;7.75;100.00
64340;BME280;63709;53.258;-8.814;2022-12-17T13:02:32;101576.81;;;7.72;100.00
64340;BME280;63709;53.258;-8.814;2022-12-17T13:05:23;101579.63;;;7.69;100.00
64340;BME280;63709;53.258;-8.814;2022-12-17T13:10:34;101568.28;;;7.66;100.00
64340;BME280;63709;53.258;-8.814;2022-12-17T13:13:16;101566.13;;;7.57;100.00
64340;BME280;63709;53.258;-8.814;2022-12-17T13:15:52;101565.94;;;7.60;100.00
64340;BME280;63709;53.258;-8.814;2022-12-17T13:18:28;101564.22;;;7.59;100.00
64340;BME280;63709;53.258;-8.814;2022-12-17T13:21:02;101555.31;;;7.60;100.00
64340;BME280;63709;53.258;-8.814;2022-12-17T13:23:36;101542.22;;;7.57;100.00
64340;BME280;63709;53.258;-8.814;2022-12-17T13:28:40;101517.66;;;7.51;100.00
64340;BME280;63709;53.258;-8.814;2022-12-17T13:31:23;101515.94;;;7.50;100.00
64340;BME280;63709;53.258;-8.814;2022-12-17T13:39:26;101539.06;;;7.48;100.00
64340;BME280;63709;53.258;-8.814;2022-12-17T13:41:59;101551.94;;;7.56;100.00
64340;BME280;63709;53.258;-8.814;2022-12-17T13:44:34;101545.63;;;7.59;100.00
64340;BME280;63709;53.258;-8.814;2022-12-17T13:47:23;101523.06;;;7.50;100.00
64340;BME280;63709;53.258;-8.814;2022-12-17T13:49:52;101535.31;;;7.70;100.00
64340;BME280;63709;53.258;-8.814;2022-12-17T13:52:22;101522.19;;;7.67;100.00
64340;BME280;63709;53.258;-8.814;2022-12-17T13:54:48;101511.56;;;7.67;100.00
64340;BME280;63709;53.258;-8.814;2022-12-17T13:57:17;101514.91;;;7.70;100.00
64340;BME280;63709;53.258;-8.814;2022-12-17T13:59:51;101524.22;;;7.79;100.00
64340;BME280;63709;53.258;-8.814;2022-12-17T14:02:27;101517.09;;;7.80;100.00
64340;BME280;63709;53.258;-8.814;2022-12-17T14:04:54;101511.34;;;7.71;100.00
64340;BME280;63709;53.258;-8.814;2022-12-17T14:07:21;101517.66;;;7.69;100.00
64340;BME280;63709;53.258;-8.814;2022-12-17T14:09:48;101534.22;;;7.74;100.00
64340;BME280;63709;53.258;-8.814;2022-12-17T14:12:16;101519.31;;;7.54;100.00
64340;BME280;63709;53.258;-8.814;2022-12-17T14:14:56;101528.13;;;7.55;100.00
64340;BME280;63709;53.258;-8.814;2022-12-17T14:17:27;101529.84;;;7.56;100.00
64340;BME280;63709;53.258;-8.814;2022-12-17T14:20:07;101520.00;;;7.40;100.00
64340;BME280;63709;53.258;-8.814;2022-12-17T14:22:42;101526.09;;;7.42;100.00
64340;BME280;63709;53.258;-8.814;2022-12-17T14:25:15;101526.50;;;7.35;100.00
64340;BME280;63709;53.258;-8.814;2022-12-17T14:27:58;101506.88;;;7.20;100.00
64340;BME280;63709;53.258;-8.814;2022-12-17T14:33:03;101510.31;;;7.22;100.00
64340;BME280;63709;53.258;-8.814;2022-12-17T14:35:34;101507.34;;;7.28;100.00
64340;BME280;63709;53.258;-8.814;2022-12-17T14:38:00;101517.34;;;7.40;100.00
64340;BME280;63709;53.258;-8.814;2022-12-17T14:40:26;101498.34;;;7.48;100.00
64340;BME280;63709;53.258;-8.814;2022-12-17T14:42:57;101504.28;;;7.70;100.00
64340;BME280;63709;53.258;-8.814;2022-12-17T14:45:27;101490.44;;;7.64;100.00
64340;BME280;63709;53.258;-8.814;2022-12-17T14:47:59;101505.94;;;7.73;100.00
64340;BME280;63709;53.258;-8.814;2022-12-17T14:50:33;101482.72;;;7.59;100.00
64340;BME280;63709;53.258;-8.814;2022-12-17T14:53:03;101490.00;;;7.73;100.00
64340;BME280;63709;53.258;-8.814;2022-12-17T14:55:33;101501.41;;;7.75;100.00
64340;BME280;63709;53.258;-8.814;2022-12-17T14:58:25;101492.41;;;7.78;100.00
64340;BME280;63709;53.258;-8.814;2022-12-17T15:01:12;101513.34;;;7.84;100.00
64340;BME280;63709;53.258;-8.814;2022-12-17T15:03:43;101511.53;;;7.84;100.00
64340;BME280;63709;53.258;-8.814;2022-12-17T15:06:15;101499.34;;;7.80;100.00
64340;BME280;63709;53.258;-8.814;2022-12-17T15:08:45;101507.50;;;7.77;100.00
64340;BME280;63709;53.258;-8.814;2022-12-17T15:11:21;101512.81;;;7.77;100.00
64340;BME280;63709;53.258;-8.814;2022-12-17T15:13:48;101496.72;;;7.63;100.00
64340;BME280;63709;53.258;-8.814;2022-12-17T15:16:14;101517.34;;;7.75;100.00
64340;BME280;63709;53.258;-8.814;2022-12-17T15:18:40;101528.34;;;7.67;100.00
64340;BME280;63709;53.258;-8.814;2022-12-17T15:21:06;101531.25;;;7.63;100.00
64340;BME280;63709;53.258;-8.814;2022-12-17T15:23:38;101536.66;;;7.61;100.00
64340;BME280;63709;53.258;-8.814;2022-12-17T15:26:07;101537.09;;;7.52;100.00